Aeroporto :
LOGIN :

Iscrizione | Disclaimer

   EN    FR    IT 

 










Sommario :    VFR   VFR Marginale   IFR   IFR Intensivo   IFR Molto Intensivo
Visibilità : 
Base nubi : 
>= 8 km
>= 3000ft
5 / 8 km
1000 / 3000 ft
1500m / 5 km
500 / 1000 ft
800 / 1500m
200 / 500 ft
< 800m
< 200 ft
Simboli :   Temporali  Nebbia  Neve Forte  Precipitazioni Forti  Vento > 20 kt
SIGMETs :   Varie  Temporali  Ghiacco  Turbolenza  Onda orograficha  Ceneri Vulcaniche






- Altitudine del aeroporto : 195 ft


LFMY - Salon de Provence

ULTIMO METAR :
  • 231800Z AUTO 25008KT 220V280 CAVOK 22/09 Q1016

METARs OBSOLETI :
  • 231730Z AUTO 25009KT CAVOK 22/10 Q1016
  • 231700Z AUTO 24009KT 200V280 9999 ///CB 23/10 Q1015 BECMG NSC
  • 231630Z AUTO 26009KT 220V310 9999 ///TCU 23/10 Q1015 BECMG NSC
  • 231600Z AUTO 24009KT 210V290 9999 ///CB 23/11 Q1015 BECMG NSC
  • 231530Z AUTO 25007KT 210V300 CAVOK 24/12 Q1015 NOSIG
  • 231500Z AUTO 27007KT 240V330 CAVOK 23/12 Q1015 NOSIG
  • 231430Z AUTO 30007KT 250V330 CAVOK 23/12 Q1016 NOSIG
  • 231400Z AUTO 27008KT 240V320 CAVOK 22/11 Q1016 NOSIG
  • 231330Z AUTO 30005KT 250V340 CAVOK 22/12 Q1016 NOSIG

TAF TAF LFMY
Valido dal 23 a 15 ore il 24 a 15 ore UTC


231400Z 2315/2415 32010KT CAVOK TX23/2413Z TN11/2405Z
BECMG 2315/2317 24010KT
BECMG 2320/2322 VRB03KT
BECMG 2410/2412 23010KT



MetMap, La meteo Aeronautica in un colpo d'occhio ! - Copyright ORBIFLY Dicembre 2007 - Disclaimer

ORBIFLY MET'MAP TEAM :

Programmazione e sviluppo : Alexandra Zaïnal
Concezione : Baudouin d'Aumeries
Supporto tecnico e logistico : Manuel Goepfert
Aiuto : Marc-Olivier Méhu
Aiuto per la traduzione : Arnaldo La Scala




FONTI E CREDITI :

   NOAA